Time;durP1;ratioP1;P1;durP2;ratioP2;P2;SDS_P1;SDS_P2;PMS_P1;PMS_P2;Temp;Humidity;BMP_temperature;BMP_pressure;BME280_temperature;BME280_humidity;BME280_pressure;Samples;Min_cycle;Max_cycle;Signal;HPM_P1;HPM_P2
2024/02/26 00:00:35;;;;;;;29.55;16.13;;;;;;;;;;2068923;28;20022;-63
2024/02/26 00:01:53;;;;;;;31.58;16.75;;;;;;;;;;2068452;28;20076;-63
2024/02/26 00:03:12;;;;;;;36.78;18.40;;;;;;;;;;2069485;28;20034;-63
2024/02/26 00:04:31;;;;;;;30.88;15.27;;;;;;;;;;2070587;28;20049;-63
2024/02/26 00:05:50;;;;;;;30.10;15.52;;;;;;;;;;2069511;28;20055;-63
2024/02/26 00:07:09;;;;;;;25.60;15.35;;;;;;;;;;2067277;28;20030;-63
2024/02/26 00:08:28;;;;;;;28.77;15.45;;;;;;;;;;2068428;28;20427;-63
2024/02/26 00:09:47;;;;;;;35.92;16.35;;;;;;;;;;2068522;28;20112;-63
2024/02/26 00:11:06;;;;;;;30.63;16.90;;;;;;;;;;2064642;28;20035;-63
2024/02/26 00:12:25;;;;;;;29.00;15.90;;;;;;;;;;2067304;28;20395;-62
2024/02/26 00:13:44;;;;;;;29.10;15.40;;;;;;;;;;2070291;28;20505;-62
2024/02/26 00:15:03;;;;;;;30.75;16.17;;;;;;;;;;2070067;28;20042;-63
2024/02/26 00:16:22;;;;;;;29.80;15.73;;;;;;;;;;2068868;28;20018;-63
2024/02/26 00:17:41;;;;;;;27.52;15.20;;;;;;;;;;2068619;28;20475;-63
2024/02/26 00:19:00;;;;;;;32.28;15.68;;;;;;;;;;2070221;28;20038;-62
2024/02/26 00:20:19;;;;;;;31.15;15.82;;;;;;;;;;2069248;28;20113;-62
2024/02/26 00:21:42;;;;;;;29.20;15.60;;;;;;;;;;2069183;28;20031;-63
2024/02/26 00:23:01;;;;;;;31.05;16.20;;;;;;;;;;2068097;28;20069;-62
2024/02/26 00:24:20;;;;;;;32.42;15.40;;;;;;;;;;2068721;28;20026;-63
2024/02/26 00:25:39;;;;;;;28.67;14.95;;;;;;;;;;2069882;28;20030;-63
2024/02/26 00:26:59;;;;;;;28.27;15.57;;;;;;;;;;2069619;28;20030;-62
2024/02/26 00:28:19;;;;;;;30.27;15.75;;;;;;;;;;2068112;28;20482;-62
2024/02/26 00:29:39;;;;;;;27.23;15.77;;;;;;;;;;2068587;28;20038;-61
2024/02/26 00:30:58;;;;;;;26.83;15.63;;;;;;;;;;2067641;28;20026;-62
2024/02/26 00:32:17;;;;;;;32.20;15.75;;;;;;;;;;2069312;28;20022;-63
2024/02/26 00:33:36;;;;;;;27.75;14.98;;;;;;;;;;2070399;28;20034;-63
2024/02/26 00:34:55;;;;;;;25.90;15.43;;;;;;;;;;2068616;28;20029;-62
2024/02/26 00:36:14;;;;;;;26.63;14.20;;;;;;;;;;2069654;28;20030;-62
2024/02/26 00:37:33;;;;;;;24.42;14.52;;;;;;;;;;2069585;28;20026;-67
2024/02/26 00:38:52;;;;;;;29.58;15.27;;;;;;;;;;2069236;28;20433;-62
2024/02/26 00:40:11;;;;;;;27.75;15.18;;;;;;;;;;2068763;28;20038;-63
2024/02/26 00:41:29;;;;;;;33.00;15.55;;;;;;;;;;2068655;28;20040;-62
2024/02/26 00:42:48;;;;;;;27.80;15.38;;;;;;;;;;2066117;28;20495;-62
2024/02/26 00:44:07;;;;;;;28.08;14.68;;;;;;;;;;2068056;28;20483;-62
2024/02/26 00:45:26;;;;;;;28.13;14.95;;;;;;;;;;2068630;28;20030;-63
2024/02/26 00:46:45;;;;;;;29.85;14.98;;;;;;;;;;2069646;28;20035;-63
2024/02/26 00:48:05;;;;;;;29.08;14.85;;;;;;;;;;2068108;28;20501;-62
2024/02/26 00:49:24;;;;;;;24.25;14.23;;;;;;;;;;2068691;28;20038;-63
2024/02/26 00:50:43;;;;;;;24.00;14.38;;;;;;;;;;2068542;28;20558;-63
2024/02/26 00:52:03;;;;;;;25.42;13.70;;;;;;;;;;2069459;28;20072;-62
2024/02/26 00:53:22;;;;;;;26.38;14.30;;;;;;;;;;2068236;28;20041;-62
2024/02/26 00:54:41;;;;;;;23.80;14.25;;;;;;;;;;2069187;28;20616;-63
2024/02/26 00:56:00;;;;;;;24.67;14.38;;;;;;;;;;2068586;28;20030;-62
2024/02/26 00:57:19;;;;;;;26.90;15.60;;;;;;;;;;2069870;28;20022;-62
2024/02/26 00:58:37;;;;;;;25.38;14.65;;;;;;;;;;2068986;28;20068;-62
2024/02/26 00:59:56;;;;;;;24.23;13.65;;;;;;;;;;2067010;28;20034;-63
2024/02/26 01:01:15;;;;;;;24.75;13.50;;;;;;;;;;2068490;28;20014;-62
2024/02/26 01:02:34;;;;;;;24.50;13.90;;;;;;;;;;2069325;28;20064;-62
2024/02/26 01:03:53;;;;;;;22.08;13.75;;;;;;;;;;2068633;28;20042;-62
2024/02/26 01:05:12;;;;;;;22.23;13.60;;;;;;;;;;2066653;28;20037;-62
2024/02/26 01:06:31;;;;;;;23.00;13.13;;;;;;;;;;2069303;28;20499;-62
2024/02/26 01:07:50;;;;;;;23.52;13.02;;;;;;;;;;2068564;28;20042;-62
2024/02/26 01:09:09;;;;;;;23.42;13.65;;;;;;;;;;2067073;28;20034;-63
2024/02/26 01:10:28;;;;;;;27.58;13.93;;;;;;;;;;2062325;28;20403;-62
2024/02/26 01:11:47;;;;;;;25.55;14.73;;;;;;;;;;2067857;28;20045;-62
2024/02/26 01:13:07;;;;;;;24.90;15.52;;;;;;;;;;2068423;28;20038;-63
2024/02/26 01:14:26;;;;;;;30.45;16.40;;;;;;;;;;2067733;28;20026;-62
2024/02/26 01:15:45;;;;;;;30.23;16.25;;;;;;;;;;2066182;28;20399;-62
2024/02/26 01:17:04;;;;;;;34.22;16.85;;;;;;;;;;2068471;28;20034;-62
2024/02/26 01:18:24;;;;;;;30.20;16.20;;;;;;;;;;2068125;28;20038;-62
2024/02/26 01:19:43;;;;;;;26.40;15.00;;;;;;;;;;2069618;28;20145;-62
2024/02/26 01:21:04;;;;;;;23.23;13.15;;;;;;;;;;2069376;28;20026;-62
2024/02/26 01:22:23;;;;;;;22.95;14.35;;;;;;;;;;2068812;28;20495;-63
2024/02/26 01:23:42;;;;;;;27.02;13.73;;;;;;;;;;2065967;28;20074;-64
2024/02/26 01:25:01;;;;;;;23.20;13.82;;;;;;;;;;2068828;28;20034;-62
2024/02/26 01:26:21;;;;;;;24.33;13.98;;;;;;;;;;2071070;28;20105;-65
2024/02/26 01:27:42;;;;;;;22.90;13.52;;;;;;;;;;2069357;28;20483;-62
2024/02/26 01:29:01;;;;;;;27.73;14.18;;;;;;;;;;2071690;28;20035;-62
2024/02/26 01:30:20;;;;;;;26.50;14.38;;;;;;;;;;2068268;28;20122;-62
2024/02/26 01:31:39;;;;;;;27.77;13.68;;;;;;;;;;2070028;28;20035;-62
2024/02/26 01:32:58;;;;;;;28.02;14.48;;;;;;;;;;2069339;28;20116;-62
2024/02/26 01:34:18;;;;;;;23.50;14.20;;;;;;;;;;2069884;28;20026;-62
2024/02/26 01:35:37;;;;;;;29.98;14.23;;;;;;;;;;2066528;28;20491;-62
2024/02/26 01:36:56;;;;;;;29.10;13.77;;;;;;;;;;2067138;28;20038;-62
2024/02/26 01:38:15;;;;;;;25.10;13.60;;;;;;;;;;2071081;28;20496;-62
2024/02/26 01:39:34;;;;;;;25.15;14.27;;;;;;;;;;2070164;28;20065;-64
2024/02/26 01:40:53;;;;;;;25.77;14.00;;;;;;;;;;2069571;28;20387;-62
2024/02/26 01:42:11;;;;;;;26.90;14.15;;;;;;;;;;2069321;28;20382;-62
2024/02/26 01:43:30;;;;;;;25.25;13.73;;;;;;;;;;2069502;28;20129;-64
2024/02/26 01:44:49;;;;;;;26.88;14.52;;;;;;;;;;2064127;28;20034;-62
2024/02/26 01:46:11;;;;;;;25.00;14.65;;;;;;;;;;2067513;28;20029;-62
2024/02/26 01:47:30;;;;;;;32.70;15.65;;;;;;;;;;2068375;28;20029;-62
2024/02/26 01:48:50;;;;;;;27.58;13.60;;;;;;;;;;2069214;28;20030;-62
2024/02/26 01:50:09;;;;;;;23.85;14.00;;;;;;;;;;2068711;28;20490;-63
2024/02/26 01:51:28;;;;;;;22.67;13.77;;;;;;;;;;2069201;28;20428;-62
2024/02/26 01:52:48;;;;;;;24.92;12.95;;;;;;;;;;2066562;28;20511;-62
2024/02/26 01:54:07;;;;;;;20.80;12.23;;;;;;;;;;2069138;28;20072;-62
2024/02/26 01:55:27;;;;;;;22.65;12.27;;;;;;;;;;2068434;28;20021;-63
2024/02/26 01:56:46;;;;;;;21.33;12.10;;;;;;;;;;2067632;28;20499;-62
2024/02/26 01:58:05;;;;;;;22.95;12.35;;;;;;;;;;2068119;28;21220;-62
2024/02/26 01:59:24;;;;;;;16.40;10.70;;;;;;;;;;2070635;28;20026;-62
2024/02/26 02:00:43;;;;;;;19.55;11.32;;;;;;;;;;2068758;28;20049;-62
2024/02/26 02:02:05;;;;;;;19.90;11.73;;;;;;;;;;2068483;28;20132;-62
2024/02/26 02:03:24;;;;;;;17.90;11.20;;;;;;;;;;2068698;28;20022;-63
2024/02/26 02:04:43;;;;;;;17.65;10.85;;;;;;;;;;2068377;28;20402;-63
2024/02/26 02:06:03;;;;;;;18.58;11.60;;;;;;;;;;2069576;28;20030;-61
2024/02/26 02:07:22;;;;;;;15.60;11.02;;;;;;;;;;2068421;28;20038;-62
2024/02/26 02:08:41;;;;;;;18.13;10.50;;;;;;;;;;2067234;28;20046;-62
2024/02/26 02:10:01;;;;;;;15.57;10.07;;;;;;;;;;2067902;28;20045;-62
2024/02/26 02:11:20;;;;;;;18.73;10.40;;;;;;;;;;2068613;28;20519;-63
2024/02/26 02:12:40;;;;;;;18.25;10.57;;;;;;;;;;2067014;28;20038;-63
2024/02/26 02:13:58;;;;;;;18.38;10.70;;;;;;;;;;2067482;28;20113;-62
2024/02/26 02:15:17;;;;;;;19.33;11.43;;;;;;;;;;2066808;28;20061;-63
2024/02/26 02:16:36;;;;;;;17.67;11.38;;;;;;;;;;2068975;28;20064;-62
2024/02/26 02:17:55;;;;;;;18.33;10.55;;;;;;;;;;2070112;28;20041;-62
2024/02/26 02:19:14;;;;;;;17.88;10.95;;;;;;;;;;2069165;28;20113;-63
2024/02/26 02:20:34;;;;;;;18.67;10.80;;;;;;;;;;2069027;28;20034;-62
2024/02/26 02:21:53;;;;;;;18.52;10.35;;;;;;;;;;2068824;28;20030;-62
2024/02/26 02:23:12;;;;;;;16.83;10.35;;;;;;;;;;2067856;28;20034;-62
2024/02/26 02:24:31;;;;;;;14.82;10.50;;;;;;;;;;2069822;28;20512;-62
2024/02/26 02:25:50;;;;;;;16.00;10.77;;;;;;;;;;2067821;28;20034;-63
2024/02/26 02:27:09;;;;;;;14.90;10.45;;;;;;;;;;2067899;28;20035;-62
2024/02/26 02:28:29;;;;;;;17.08;10.70;;;;;;;;;;2067872;28;20529;-62
2024/02/26 02:29:48;;;;;;;17.27;10.10;;;;;;;;;;2069731;28;20054;-63
2024/02/26 02:31:07;;;;;;;13.55;9.40;;;;;;;;;;2066700;28;20026;-64
2024/02/26 02:32:27;;;;;;;15.27;10.02;;;;;;;;;;2064227;28;20030;-62
2024/02/26 02:33:46;;;;;;;14.43;9.10;;;;;;;;;;2068028;28;20026;-63
2024/02/26 02:35:05;;;;;;;17.55;9.85;;;;;;;;;;2063553;28;20113;-62
2024/02/26 02:36:24;;;;;;;12.45;9.32;;;;;;;;;;2068320;28;20026;-63
2024/02/26 02:37:43;;;;;;;15.07;9.43;;;;;;;;;;2067375;28;20061;-61
2024/02/26 02:39:03;;;;;;;17.85;9.27;;;;;;;;;;2066196;28;20031;-63
2024/02/26 02:40:22;;;;;;;15.13;9.55;;;;;;;;;;2066858;28;20030;-63
2024/02/26 02:41:40;;;;;;;13.23;8.80;;;;;;;;;;2069526;28;20391;-62
2024/02/26 02:43:01;;;;;;;13.30;10.02;;;;;;;;;;2066986;28;20038;-63
2024/02/26 02:44:20;;;;;;;13.52;9.45;;;;;;;;;;2067552;28;20030;-63
2024/02/26 02:45:39;;;;;;;17.73;9.52;;;;;;;;;;2065789;28;20050;-63
2024/02/26 02:46:58;;;;;;;12.95;9.15;;;;;;;;;;2066262;28;20023;-63
2024/02/26 02:48:17;;;;;;;12.02;9.23;;;;;;;;;;2068133;28;20018;-63
2024/02/26 02:49:36;;;;;;;13.13;9.40;;;;;;;;;;2067367;28;20038;-63
2024/02/26 02:50:55;;;;;;;13.65;9.02;;;;;;;;;;2068396;28;20649;-63
2024/02/26 02:52:14;;;;;;;16.65;10.10;;;;;;;;;;2068970;28;20038;-63
2024/02/26 02:53:33;;;;;;;15.63;10.13;;;;;;;;;;2068724;28;20045;-63
2024/02/26 02:54:52;;;;;;;14.45;9.27;;;;;;;;;;2070607;28;20477;-63
2024/02/26 02:56:11;;;;;;;14.32;9.25;;;;;;;;;;2070029;28;20030;-63
2024/02/26 02:57:30;;;;;;;14.77;10.48;;;;;;;;;;2069004;28;20429;-63
2024/02/26 02:58:49;;;;;;;13.55;9.73;;;;;;;;;;2066608;28;20030;-65
2024/02/26 03:00:09;;;;;;;16.67;10.55;;;;;;;;;;2067628;28;20108;-62
2024/02/26 03:01:28;;;;;;;13.68;10.10;;;;;;;;;;2066755;28;20030;-63
2024/02/26 03:02:47;;;;;;;15.65;9.48;;;;;;;;;;2070469;28;20387;-63
2024/02/26 03:04:06;;;;;;;14.98;10.50;;;;;;;;;;2065840;28;20098;-63
2024/02/26 03:05:25;;;;;;;16.90;10.15;;;;;;;;;;2067519;28;20018;-63
2024/02/26 03:06:44;;;;;;;15.38;10.68;;;;;;;;;;2066545;28;20035;-62
2024/02/26 03:08:03;;;;;;;15.52;10.30;;;;;;;;;;2071029;28;20169;-62
2024/02/26 03:09:23;;;;;;;16.38;9.93;;;;;;;;;;2070307;28;20026;-62
2024/02/26 03:10:43;;;;;;;15.60;10.07;;;;;;;;;;2069731;28;20461;-63
2024/02/26 03:12:02;;;;;;;14.43;9.73;;;;;;;;;;2068285;28;20030;-63
2024/02/26 03:13:21;;;;;;;13.35;10.00;;;;;;;;;;2070086;28;20030;-63
2024/02/26 03:14:40;;;;;;;12.57;9.52;;;;;;;;;;2069956;28;20034;-63
2024/02/26 03:16:04;;;;;;;15.20;10.50;;;;;;;;;;2068956;28;20383;-63
2024/02/26 03:17:24;;;;;;;16.20;10.30;;;;;;;;;;2071495;28;20038;-63
2024/02/26 03:18:43;;;;;;;18.05;10.45;;;;;;;;;;2069482;28;20034;-63
2024/02/26 03:20:04;;;;;;;21.60;11.80;;;;;;;;;;2070170;28;20108;-63
2024/02/26 03:21:25;;;;;;;13.75;10.75;;;;;;;;;;2067031;28;20026;-63
2024/02/26 03:22:43;;;;;;;16.20;10.75;;;;;;;;;;2069557;28;20035;-62
2024/02/26 03:24:03;;;;;;;17.58;11.13;;;;;;;;;;2068839;28;20034;-62
2024/02/26 03:25:22;;;;;;;15.40;10.63;;;;;;;;;;2070861;28;20034;-63
2024/02/26 03:26:41;;;;;;;14.15;10.80;;;;;;;;;;2068551;28;20030;-63
2024/02/26 03:28:00;;;;;;;16.00;11.27;;;;;;;;;;2067715;28;20022;-62
2024/02/26 03:29:19;;;;;;;14.82;10.35;;;;;;;;;;2069458;28;21375;-62
2024/02/26 03:30:38;;;;;;;12.98;9.60;;;;;;;;;;2070598;28;20042;-63
2024/02/26 03:31:57;;;;;;;15.50;10.65;;;;;;;;;;2070811;28;20034;-63
2024/02/26 03:33:16;;;;;;;15.00;10.65;;;;;;;;;;2068664;28;20073;-63
2024/02/26 03:34:35;;;;;;;18.10;10.95;;;;;;;;;;2074388;28;21459;-63
2024/02/26 03:35:54;;;;;;;14.68;11.18;;;;;;;;;;2071425;28;20034;-63
2024/02/26 03:37:13;;;;;;;16.30;11.07;;;;;;;;;;2068742;28;20026;-62
2024/02/26 03:38:32;;;;;;;18.48;11.25;;;;;;;;;;2068150;28;20056;-63
2024/02/26 03:39:51;;;;;;;17.52;10.85;;;;;;;;;;2068530;28;20061;-63
2024/02/26 03:41:10;;;;;;;18.05;11.63;;;;;;;;;;2068823;28;20488;-63
2024/02/26 03:42:29;;;;;;;15.27;11.18;;;;;;;;;;2069531;28;20436;-66
2024/02/26 03:43:48;;;;;;;14.68;10.88;;;;;;;;;;2070267;28;20528;-63
2024/02/26 03:45:07;;;;;;;19.55;10.82;;;;;;;;;;2070283;28;20026;-63
2024/02/26 03:46:26;;;;;;;18.08;10.60;;;;;;;;;;2068032;28;20026;-63
2024/02/26 03:47:45;;;;;;;15.38;10.18;;;;;;;;;;2068535;28;20479;-63
2024/02/26 03:49:04;;;;;;;15.75;10.77;;;;;;;;;;2068464;28;20042;-62
2024/02/26 03:50:23;;;;;;;16.13;9.93;;;;;;;;;;2069543;28;20038;-63
2024/02/26 03:51:42;;;;;;;15.05;10.27;;;;;;;;;;2070125;28;20037;-63
2024/02/26 03:53:01;;;;;;;13.77;10.25;;;;;;;;;;2068762;28;20218;-63
2024/02/26 03:54:20;;;;;;;20.95;11.15;;;;;;;;;;2069886;28;20037;-62
2024/02/26 03:55:41;;;;;;;16.83;11.45;;;;;;;;;;2067718;28;20109;-63
2024/02/26 03:57:00;;;;;;;19.10;11.55;;;;;;;;;;2068604;28;20030;-63
2024/02/26 03:58:19;;;;;;;17.63;12.40;;;;;;;;;;2068162;28;20026;-63
2024/02/26 03:59:39;;;;;;;21.58;13.80;;;;;;;;;;2068245;28;20033;-63
2024/02/26 04:01:01;;;;;;;14.05;11.77;;;;;;;;;;2069596;28;20018;-62
2024/02/26 04:02:20;;;;;;;18.98;12.25;;;;;;;;;;2069040;28;20439;-62
2024/02/26 04:03:39;;;;;;;16.20;11.50;;;;;;;;;;2068451;28;20042;-63
2024/02/26 04:04:59;;;;;;;19.02;13.65;;;;;;;;;;2070193;28;20029;-63
2024/02/26 04:06:20;;;;;;;19.38;13.95;;;;;;;;;;2070943;28;20030;-63
2024/02/26 04:07:42;;;;;;;18.85;13.65;;;;;;;;;;2069360;28;20061;-62
2024/02/26 04:09:03;;;;;;;17.50;12.38;;;;;;;;;;2068412;28;20515;-63
2024/02/26 04:10:23;;;;;;;18.33;13.52;;;;;;;;;;2068809;28;20026;-63
2024/02/26 04:11:45;;;;;;;17.20;12.70;;;;;;;;;;2068298;28;20039;-63
2024/02/26 04:13:04;;;;;;;20.20;13.45;;;;;;;;;;2068878;28;20046;-63
2024/02/26 04:14:23;;;;;;;19.70;13.90;;;;;;;;;;2067226;28;20030;-63
2024/02/26 04:15:42;;;;;;;17.85;12.20;;;;;;;;;;2068101;28;20034;-62
2024/02/26 04:17:02;;;;;;;15.60;12.05;;;;;;;;;;2069083;28;20038;-66
2024/02/26 04:18:21;;;;;;;16.85;11.50;;;;;;;;;;2069225;28;20029;-63
2024/02/26 04:19:40;;;;;;;18.55;12.75;;;;;;;;;;2068098;28;20034;-63
2024/02/26 04:20:59;;;;;;;15.23;11.95;;;;;;;;;;2068825;28;20400;-63
2024/02/26 04:22:17;;;;;;;20.83;12.95;;;;;;;;;;2067806;28;20022;-62
2024/02/26 04:23:37;;;;;;;19.90;12.43;;;;;;;;;;2069461;28;20030;-62
2024/02/26 04:24:55;;;;;;;18.20;12.38;;;;;;;;;;2069559;28;20042;-62
2024/02/26 04:26:15;;;;;;;21.02;12.60;;;;;;;;;;2069565;28;20398;-62
2024/02/26 04:27:34;;;;;;;18.17;12.27;;;;;;;;;;2068077;28;20030;-62
2024/02/26 04:28:54;;;;;;;17.50;12.95;;;;;;;;;;2067894;28;20034;-62
2024/02/26 04:30:13;;;;;;;17.88;12.10;;;;;;;;;;2071069;28;20041;-63
2024/02/26 04:31:32;;;;;;;16.70;12.30;;;;;;;;;;2068958;28;20038;-63
2024/02/26 04:32:51;;;;;;;21.30;12.82;;;;;;;;;;2067437;28;20042;-63
2024/02/26 04:34:10;;;;;;;20.42;12.93;;;;;;;;;;2068317;28;20034;-63
2024/02/26 04:35:29;;;;;;;20.10;13.65;;;;;;;;;;2068852;28;20498;-63
2024/02/26 04:36:49;;;;;;;20.98;13.52;;;;;;;;;;2069998;28;20129;-63
2024/02/26 04:38:08;;;;;;;19.83;13.32;;;;;;;;;;2070703;28;20022;-62
2024/02/26 04:39:27;;;;;;;21.65;13.80;;;;;;;;;;2065811;28;20022;-62
2024/02/26 04:40:46;;;;;;;23.42;13.70;;;;;;;;;;2070544;28;20045;-63
2024/02/26 04:42:05;;;;;;;23.27;13.65;;;;;;;;;;2069828;28;20022;-63
2024/02/26 04:43:24;;;;;;;21.75;12.98;;;;;;;;;;2069174;28;20487;-63
2024/02/26 04:44:43;;;;;;;20.02;12.55;;;;;;;;;;2069301;28;20038;-62
2024/02/26 04:46:02;;;;;;;22.50;13.00;;;;;;;;;;2067542;28;20030;-63
2024/02/26 04:47:22;;;;;;;20.65;12.30;;;;;;;;;;2066903;28;20030;-63
2024/02/26 04:48:46;;;;;;;22.98;13.70;;;;;;;;;;2067249;28;20030;-62
2024/02/26 04:50:05;;;;;;;20.48;12.07;;;;;;;;;;2068939;28;20026;-62
2024/02/26 04:51:25;;;;;;;24.10;12.05;;;;;;;;;;2068217;28;20156;-62
2024/02/26 04:52:44;;;;;;;26.52;13.35;;;;;;;;;;2068877;28;20034;-63
2024/02/26 04:54:03;;;;;;;19.77;12.25;;;;;;;;;;2068304;28;20562;-63
2024/02/26 04:55:22;;;;;;;26.70;12.95;;;;;;;;;;2067652;28;20544;-63
2024/02/26 04:56:41;;;;;;;36.78;13.23;;;;;;;;;;2068569;28;20026;-63
2024/02/26 04:58:00;;;;;;;32.28;13.15;;;;;;;;;;2069813;28;20034;-63
2024/02/26 04:59:19;;;;;;;39.40;13.90;;;;;;;;;;2068683;28;20046;-62
2024/02/26 05:00:38;;;;;;;35.97;14.05;;;;;;;;;;2068869;28;21475;-63
2024/02/26 05:01:56;;;;;;;45.42;14.63;;;;;;;;;;2067858;28;20030;-62
2024/02/26 05:03:15;;;;;;;40.63;14.68;;;;;;;;;;2069105;28;20105;-63
2024/02/26 05:04:35;;;;;;;37.42;14.57;;;;;;;;;;2070146;28;20030;-64
2024/02/26 05:05:53;;;;;;;36.30;15.30;;;;;;;;;;2068617;28;20022;-61
2024/02/26 05:07:13;;;;;;;26.48;13.68;;;;;;;;;;2067485;28;20414;-62
2024/02/26 05:08:33;;;;;;;22.83;12.73;;;;;;;;;;2069604;28;20225;-63
2024/02/26 05:09:52;;;;;;;28.50;13.52;;;;;;;;;;2069550;28;20033;-63
2024/02/26 05:11:11;;;;;;;29.27;14.32;;;;;;;;;;2070379;28;20061;-63
2024/02/26 05:12:30;;;;;;;26.13;14.32;;;;;;;;;;2068086;28;20071;-63
2024/02/26 05:13:49;;;;;;;33.53;14.18;;;;;;;;;;2067532;28;20046;-63
2024/02/26 05:15:09;;;;;;;23.00;14.02;;;;;;;;;;2068457;28;20038;-63
2024/02/26 05:16:30;;;;;;;30.20;13.90;;;;;;;;;;2068965;28;20034;-63
2024/02/26 05:17:49;;;;;;;23.52;13.98;;;;;;;;;;2071819;28;20054;-62
2024/02/26 05:19:08;;;;;;;25.95;13.80;;;;;;;;;;2066492;28;20035;-62
2024/02/26 05:20:27;;;;;;;33.63;14.13;;;;;;;;;;2067639;28;20121;-62
2024/02/26 05:21:48;;;;;;;25.23;14.23;;;;;;;;;;2068587;28;20499;-62
2024/02/26 05:23:07;;;;;;;22.30;13.35;;;;;;;;;;2070801;28;20026;-62
2024/02/26 05:24:26;;;;;;;25.30;13.60;;;;;;;;;;2067139;28;20022;-63
2024/02/26 05:25:47;;;;;;;24.08;13.90;;;;;;;;;;2066439;28;20065;-62
2024/02/26 05:27:06;;;;;;;22.75;12.85;;;;;;;;;;2067164;28;20452;-63
2024/02/26 05:28:25;;;;;;;22.48;13.15;;;;;;;;;;2068667;28;20030;-63
2024/02/26 05:29:44;;;;;;;27.27;13.32;;;;;;;;;;2071893;28;20102;-62
2024/02/26 05:31:03;;;;;;;25.17;14.65;;;;;;;;;;2069258;28;20058;-63
2024/02/26 05:32:22;;;;;;;27.05;14.15;;;;;;;;;;2068599;28;20396;-63
2024/02/26 05:33:41;;;;;;;23.27;13.73;;;;;;;;;;2067775;28;20039;-62
2024/02/26 05:35:00;;;;;;;22.50;13.50;;;;;;;;;;2068195;28;20044;-63
2024/02/26 05:36:21;;;;;;;23.52;14.50;;;;;;;;;;2069560;28;20064;-63
2024/02/26 05:37:40;;;;;;;22.23;13.45;;;;;;;;;;2063522;28;20053;-64
2024/02/26 05:39:00;;;;;;;23.77;13.77;;;;;;;;;;2062829;28;20511;-65
2024/02/26 05:40:19;;;;;;;19.73;13.20;;;;;;;;;;2069656;28;20026;-63
2024/02/26 05:41:38;;;;;;;22.40;14.38;;;;;;;;;;2070322;28;20498;-63
2024/02/26 05:42:57;;;;;;;23.70;13.98;;;;;;;;;;2068407;28;20029;-62
2024/02/26 05:44:16;;;;;;;19.80;12.68;;;;;;;;;;2067037;28;20630;-63
2024/02/26 05:45:35;;;;;;;21.85;13.50;;;;;;;;;;2061553;28;20030;-63
2024/02/26 05:46:54;;;;;;;28.27;13.50;;;;;;;;;;2068879;28;20492;-63
2024/02/26 05:48:13;;;;;;;18.13;13.43;;;;;;;;;;2069459;28;20054;-64
2024/02/26 05:49:33;;;;;;;20.00;13.52;;;;;;;;;;2068256;28;20083;-63
2024/02/26 05:50:52;;;;;;;24.05;13.32;;;;;;;;;;2066289;28;20030;-63
2024/02/26 05:52:10;;;;;;;21.38;13.77;;;;;;;;;;2068345;28;20072;-63
2024/02/26 05:53:29;;;;;;;21.75;12.57;;;;;;;;;;2069959;28;20062;-63
2024/02/26 05:54:48;;;;;;;18.98;12.32;;;;;;;;;;2070338;28;20155;-63
2024/02/26 05:56:08;;;;;;;20.67;12.55;;;;;;;;;;2065882;28;20471;-65
2024/02/26 05:57:27;;;;;;;16.08;12.85;;;;;;;;;;2069963;28;20491;-64
2024/02/26 05:58:45;;;;;;;18.98;11.82;;;;;;;;;;2068250;28;20134;-63
2024/02/26 06:00:05;;;;;;;18.65;11.70;;;;;;;;;;2066859;28;20348;-64
2024/02/26 06:01:25;;;;;;;21.92;12.02;;;;;;;;;;2060933;28;20026;-64
2024/02/26 06:02:44;;;;;;;14.93;11.23;;;;;;;;;;2067381;28;20022;-64
2024/02/26 06:04:03;;;;;;;18.40;11.40;;;;;;;;;;2068894;28;20026;-64
2024/02/26 06:05:22;;;;;;;28.05;12.93;;;;;;;;;;2069798;28;20034;-64
2024/02/26 06:06:41;;;;;;;21.77;13.38;;;;;;;;;;2065815;28;20027;-64
2024/02/26 06:08:00;;;;;;;22.02;13.18;;;;;;;;;;2070425;28;20034;-64
2024/02/26 06:09:19;;;;;;;19.77;13.35;;;;;;;;;;2070463;28;20101;-63
2024/02/26 06:10:39;;;;;;;21.42;13.32;;;;;;;;;;2067887;28;20027;-64
2024/02/26 06:11:58;;;;;;;17.30;12.30;;;;;;;;;;2067820;28;20163;-64
2024/02/26 06:13:17;;;;;;;21.05;13.20;;;;;;;;;;2067448;28;20034;-63
2024/02/26 06:14:36;;;;;;;28.27;14.07;;;;;;;;;;2069368;28;20030;-63
2024/02/26 06:15:55;;;;;;;20.35;13.90;;;;;;;;;;2067679;28;20026;-64
2024/02/26 06:17:14;;;;;;;21.02;12.70;;;;;;;;;;2068917;28;20038;-63
2024/02/26 06:18:33;;;;;;;20.20;12.82;;;;;;;;;;2067314;28;20034;-64
2024/02/26 06:19:53;;;;;;;19.08;13.13;;;;;;;;;;2066431;28;20071;-64
2024/02/26 06:21:12;;;;;;;21.00;13.48;;;;;;;;;;2061838;28;20031;-64
2024/02/26 06:22:31;;;;;;;21.60;13.70;;;;;;;;;;2062216;28;20047;-64
2024/02/26 06:23:50;;;;;;;21.70;14.20;;;;;;;;;;2066209;28;20541;-64
2024/02/26 06:25:09;;;;;;;21.52;13.27;;;;;;;;;;2064666;28;20030;-64
2024/02/26 06:26:29;;;;;;;20.35;13.35;;;;;;;;;;2067950;28;20513;-63
2024/02/26 06:27:49;;;;;;;20.15;13.60;;;;;;;;;;2066498;28;20080;-64
2024/02/26 06:29:08;;;;;;;24.88;14.18;;;;;;;;;;2068525;28;20030;-64
2024/02/26 06:30:26;;;;;;;22.13;14.23;;;;;;;;;;2065680;28;20038;-64
2024/02/26 06:31:45;;;;;;;21.17;13.63;;;;;;;;;;2064282;28;20030;-64
2024/02/26 06:33:04;;;;;;;24.08;15.65;;;;;;;;;;2065793;28;20449;-64
2024/02/26 06:34:23;;;;;;;29.77;15.55;;;;;;;;;;2066934;28;20030;-64
2024/02/26 06:35:42;;;;;;;25.88;16.50;;;;;;;;;;2067007;28;20097;-63
2024/02/26 06:37:01;;;;;;;34.67;19.70;;;;;;;;;;2071032;28;20109;-64
2024/02/26 06:38:20;;;;;;;25.80;15.00;;;;;;;;;;2064225;28;20137;-64
2024/02/26 06:39:40;;;;;;;21.73;14.05;;;;;;;;;;2065756;28;20482;-65
2024/02/26 06:41:00;;;;;;;23.00;14.75;;;;;;;;;;2065680;28;20042;-62
2024/02/26 06:42:18;;;;;;;21.98;14.27;;;;;;;;;;2067979;28;20018;-63
2024/02/26 06:43:37;;;;;;;21.00;14.30;;;;;;;;;;2064513;28;20030;-63
2024/02/26 06:44:57;;;;;;;20.15;13.23;;;;;;;;;;2069506;28;20042;-65
2024/02/26 06:46:16;;;;;;;20.65;13.30;;;;;;;;;;2068149;28;20030;-62
2024/02/26 06:47:35;;;;;;;24.85;14.27;;;;;;;;;;2067465;28;20030;-63
2024/02/26 06:48:54;;;;;;;22.27;13.93;;;;;;;;;;2068711;28;20491;-63
2024/02/26 06:50:13;;;;;;;25.50;14.18;;;;;;;;;;2066982;28;20050;-63
2024/02/26 06:51:32;;;;;;;24.00;13.85;;;;;;;;;;2065440;28;20026;-63
2024/02/26 06:52:51;;;;;;;26.67;14.93;;;;;;;;;;2069169;28;20413;-62
2024/02/26 06:54:10;;;;;;;26.02;14.75;;;;;;;;;;2068399;28;20030;-63
2024/02/26 06:55:29;;;;;;;22.27;14.30;;;;;;;;;;2068284;28;20029;-63
2024/02/26 06:56:48;;;;;;;21.80;13.95;;;;;;;;;;2068918;28;20562;-63
2024/02/26 06:58:07;;;;;;;23.77;15.15;;;;;;;;;;2068197;28;20034;-63
2024/02/26 06:59:26;;;;;;;24.75;15.73;;;;;;;;;;2066457;28;20105;-63
2024/02/26 07:00:46;;;;;;;25.10;14.48;;;;;;;;;;2065461;28;20030;-63
2024/02/26 07:02:05;;;;;;;25.23;15.20;;;;;;;;;;2065175;28;20030;-63
2024/02/26 07:03:25;;;;;;;25.45;15.18;;;;;;;;;;2068350;28;20590;-63
2024/02/26 07:04:44;;;;;;;22.58;15.00;;;;;;;;;;2068843;28;20038;-63
2024/02/26 07:06:03;;;;;;;26.48;16.02;;;;;;;;;;2067557;28;20034;-63
2024/02/26 07:07:23;;;;;;;24.52;15.52;;;;;;;;;;2068071;28;20038;-63
2024/02/26 07:08:42;;;;;;;28.15;16.25;;;;;;;;;;2066584;28;20037;-62
2024/02/26 07:10:03;;;;;;;27.90;16.58;;;;;;;;;;2069650;28;20046;-63
2024/02/26 07:11:22;;;;;;;26.08;15.98;;;;;;;;;;2072877;28;20120;-63
2024/02/26 07:12:41;;;;;;;27.33;15.50;;;;;;;;;;2069057;28;20503;-63
2024/02/26 07:14:01;;;;;;;25.88;15.73;;;;;;;;;;2069312;28;20034;-63
2024/02/26 07:15:20;;;;;;;24.90;15.05;;;;;;;;;;2069631;28;20142;-63
2024/02/26 07:16:38;;;;;;;24.95;16.77;;;;;;;;;;2068662;28;20031;-63
2024/02/26 07:18:02;;;;;;;27.23;16.15;;;;;;;;;;2071759;28;20398;-62
2024/02/26 07:19:21;;;;;;;28.60;16.52;;;;;;;;;;2071135;28;20441;-62
2024/02/26 07:20:41;;;;;;;27.83;16.80;;;;;;;;;;2068349;28;20627;-63
2024/02/26 07:22:03;;;;;;;27.77;17.05;;;;;;;;;;2067362;28;20026;-62
2024/02/26 07:23:22;;;;;;;28.08;16.98;;;;;;;;;;2070756;28;20541;-67
2024/02/26 07:24:41;;;;;;;26.67;16.30;;;;;;;;;;2071462;28;20038;-62
2024/02/26 07:26:00;;;;;;;21.70;15.60;;;;;;;;;;2069907;28;20026;-63
2024/02/26 07:27:21;;;;;;;27.67;16.75;;;;;;;;;;2069946;28;20030;-63
2024/02/26 07:28:40;;;;;;;24.35;15.88;;;;;;;;;;2068005;28;20033;-63
2024/02/26 07:29:58;;;;;;;22.73;15.95;;;;;;;;;;2070093;28;20038;-63
2024/02/26 07:31:18;;;;;;;23.55;15.60;;;;;;;;;;2072110;28;20030;-63
2024/02/26 07:32:37;;;;;;;27.70;16.90;;;;;;;;;;2070835;28;20035;-63
2024/02/26 07:33:55;;;;;;;25.02;15.77;;;;;;;;;;2070031;28;20069;-62
2024/02/26 07:35:15;;;;;;;23.35;15.40;;;;;;;;;;2068976;28;20018;-63
2024/02/26 07:36:34;;;;;;;30.13;16.02;;;;;;;;;;2070682;28;20029;-63
2024/02/26 07:37:53;;;;;;;25.88;16.23;;;;;;;;;;2068815;28;20046;-63
2024/02/26 07:39:12;;;;;;;26.20;16.65;;;;;;;;;;2068369;28;20391;-62
2024/02/26 07:40:30;;;;;;;22.05;15.07;;;;;;;;;;2068092;28;20038;-64
2024/02/26 07:41:51;;;;;;;25.85;16.52;;;;;;;;;;2071627;28;20026;-64